sensor_id;sensor_type;location;lat;lon;timestamp;P1;durP1;ratioP1;P2;durP2;ratioP2
73084;SDS011;62974;49.460;10.892;2022-09-27T00:02:22;64.00;;;61.47;;
73084;SDS011;62974;49.460;10.892;2022-09-27T00:04:49;64.23;;;61.63;;
73084;SDS011;62974;49.460;10.892;2022-09-27T00:07:18;63.30;;;60.80;;
73084;SDS011;62974;49.460;10.892;2022-09-27T00:09:45;60.53;;;58.10;;
73084;SDS011;62974;49.460;10.892;2022-09-27T00:12:13;64.50;;;62.10;;
73084;SDS011;62974;49.460;10.892;2022-09-27T00:14:40;62.87;;;60.37;;
73084;SDS011;62974;49.460;10.892;2022-09-27T00:17:09;61.80;;;59.50;;
73084;SDS011;62974;49.460;10.892;2022-09-27T00:19:37;63.90;;;61.50;;
73084;SDS011;62974;49.460;10.892;2022-09-27T00:22:04;63.00;;;60.40;;
73084;SDS011;62974;49.460;10.892;2022-09-27T00:24:32;63.30;;;61.00;;
73084;SDS011;62974;49.460;10.892;2022-09-27T00:26:59;61.10;;;58.40;;
73084;SDS011;62974;49.460;10.892;2022-09-27T00:29:27;62.17;;;59.47;;
73084;SDS011;62974;49.460;10.892;2022-09-27T00:31:55;63.27;;;60.93;;
73084;SDS011;62974;49.460;10.892;2022-09-27T00:34:24;63.50;;;61.20;;
73084;SDS011;62974;49.460;10.892;2022-09-27T00:36:52;64.10;;;61.60;;
73084;SDS011;62974;49.460;10.892;2022-09-27T00:39:20;64.43;;;62.13;;
73084;SDS011;62974;49.460;10.892;2022-09-27T00:41:48;62.90;;;60.53;;
73084;SDS011;62974;49.460;10.892;2022-09-27T00:47:26;62.03;;;59.83;;
73084;SDS011;62974;49.460;10.892;2022-09-27T00:50:02;63.57;;;61.27;;
73084;SDS011;62974;49.460;10.892;2022-09-27T00:52:35;63.20;;;60.90;;
73084;SDS011;62974;49.460;10.892;2022-09-27T00:55:10;61.67;;;59.47;;
73084;SDS011;62974;49.460;10.892;2022-09-27T00:57:43;62.20;;;60.00;;
73084;SDS011;62974;49.460;10.892;2022-09-27T01:00:12;62.77;;;60.57;;
73084;SDS011;62974;49.460;10.892;2022-09-27T01:02:41;60.10;;;57.80;;
73084;SDS011;62974;49.460;10.892;2022-09-27T01:05:13;64.53;;;62.20;;
73084;SDS011;62974;49.460;10.892;2022-09-27T01:07:43;62.03;;;59.53;;
73084;SDS011;62974;49.460;10.892;2022-09-27T01:10:11;61.97;;;59.77;;
73084;SDS011;62974;49.460;10.892;2022-09-27T01:12:41;62.40;;;60.20;;
73084;SDS011;62974;49.460;10.892;2022-09-27T01:15:20;60.90;;;58.80;;
73084;SDS011;62974;49.460;10.892;2022-09-27T01:17:56;60.40;;;58.20;;
73084;SDS011;62974;49.460;10.892;2022-09-27T01:20:49;61.77;;;59.67;;
73084;SDS011;62974;49.460;10.892;2022-09-27T01:23:33;60.83;;;58.63;;
73084;SDS011;62974;49.460;10.892;2022-09-27T01:26:15;59.20;;;57.10;;
73084;SDS011;62974;49.460;10.892;2022-09-27T01:28:55;61.00;;;58.60;;
73084;SDS011;62974;49.460;10.892;2022-09-27T01:31:32;61.17;;;59.07;;
73084;SDS011;62974;49.460;10.892;2022-09-27T01:34:06;59.40;;;57.40;;
73084;SDS011;62974;49.460;10.892;2022-09-27T01:36:43;60.07;;;57.97;;
73084;SDS011;62974;49.460;10.892;2022-09-27T01:39:19;61.33;;;59.13;;
73084;SDS011;62974;49.460;10.892;2022-09-27T01:41:55;59.90;;;57.70;;
73084;SDS011;62974;49.460;10.892;2022-09-27T01:44:30;60.73;;;58.63;;
73084;SDS011;62974;49.460;10.892;2022-09-27T01:47:03;62.20;;;60.00;;
73084;SDS011;62974;49.460;10.892;2022-09-27T01:49:38;60.63;;;58.50;;
73084;SDS011;62974;49.460;10.892;2022-09-27T01:52:12;61.37;;;59.17;;
73084;SDS011;62974;49.460;10.892;2022-09-27T01:54:43;62.07;;;59.87;;
73084;SDS011;62974;49.460;10.892;2022-09-27T01:57:16;63.50;;;61.30;;
73084;SDS011;62974;49.460;10.892;2022-09-27T01:59:49;64.13;;;61.83;;
73084;SDS011;62974;49.460;10.892;2022-09-27T02:02:23;62.20;;;59.90;;
73084;SDS011;62974;49.460;10.892;2022-09-27T02:04:54;62.17;;;59.87;;
73084;SDS011;62974;49.460;10.892;2022-09-27T02:07:26;62.57;;;60.37;;
73084;SDS011;62974;49.460;10.892;2022-09-27T02:09:59;61.60;;;59.50;;
73084;SDS011;62974;49.460;10.892;2022-09-27T02:12:32;62.40;;;60.20;;
73084;SDS011;62974;49.460;10.892;2022-09-27T02:15:07;61.70;;;59.50;;
73084;SDS011;62974;49.460;10.892;2022-09-27T02:17:39;61.20;;;59.10;;
73084;SDS011;62974;49.460;10.892;2022-09-27T02:20:12;61.30;;;59.10;;
73084;SDS011;62974;49.460;10.892;2022-09-27T02:22:46;59.60;;;57.50;;
73084;SDS011;62974;49.460;10.892;2022-09-27T02:25:18;60.40;;;58.40;;
73084;SDS011;62974;49.460;10.892;2022-09-27T02:27:52;61.47;;;59.27;;
73084;SDS011;62974;49.460;10.892;2022-09-27T02:30:23;59.63;;;57.63;;
73084;SDS011;62974;49.460;10.892;2022-09-27T02:32:52;60.93;;;58.83;;
73084;SDS011;62974;49.460;10.892;2022-09-27T02:35:21;62.30;;;60.10;;
73084;SDS011;62974;49.460;10.892;2022-09-27T02:37:51;63.57;;;61.27;;
73084;SDS011;62974;49.460;10.892;2022-09-27T02:40:20;62.33;;;60.03;;
73084;SDS011;62974;49.460;10.892;2022-09-27T02:42:48;61.90;;;59.70;;
73084;SDS011;62974;49.460;10.892;2022-09-27T02:45:16;62.93;;;60.77;;
73084;SDS011;62974;49.460;10.892;2022-09-27T02:47:51;62.13;;;59.80;;
73084;SDS011;62974;49.460;10.892;2022-09-27T02:53:36;62.40;;;60.20;;
73084;SDS011;62974;49.460;10.892;2022-09-27T02:56:08;61.93;;;59.73;;
73084;SDS011;62974;49.460;10.892;2022-09-27T02:58:46;62.63;;;60.00;;
73084;SDS011;62974;49.460;10.892;2022-09-27T03:01:22;62.47;;;60.37;;
73084;SDS011;62974;49.460;10.892;2022-09-27T03:04:00;61.50;;;59.20;;
73084;SDS011;62974;49.460;10.892;2022-09-27T03:06:34;60.37;;;57.70;;
73084;SDS011;62974;49.460;10.892;2022-09-27T03:09:03;61.17;;;59.07;;
73084;SDS011;62974;49.460;10.892;2022-09-27T03:11:31;59.90;;;57.80;;
73084;SDS011;62974;49.460;10.892;2022-09-27T03:13:58;59.77;;;57.57;;
73084;SDS011;62974;49.460;10.892;2022-09-27T03:16:34;60.30;;;57.80;;
73084;SDS011;62974;49.460;10.892;2022-09-27T03:19:03;59.67;;;57.47;;
73084;SDS011;62974;49.460;10.892;2022-09-27T03:21:31;60.13;;;57.87;;
73084;SDS011;62974;49.460;10.892;2022-09-27T03:23:58;60.83;;;58.53;;
73084;SDS011;62974;49.460;10.892;2022-09-27T03:26:26;59.33;;;57.13;;
73084;SDS011;62974;49.460;10.892;2022-09-27T03:28:54;59.83;;;57.73;;
73084;SDS011;62974;49.460;10.892;2022-09-27T03:31:21;60.50;;;58.30;;
73084;SDS011;62974;49.460;10.892;2022-09-27T03:33:49;60.70;;;58.60;;
73084;SDS011;62974;49.460;10.892;2022-09-27T03:36:18;59.60;;;57.50;;
73084;SDS011;62974;49.460;10.892;2022-09-27T03:38:45;59.47;;;57.30;;
73084;SDS011;62974;49.460;10.892;2022-09-27T03:41:13;59.90;;;57.80;;
73084;SDS011;62974;49.460;10.892;2022-09-27T03:43:40;61.50;;;59.40;;
73084;SDS011;62974;49.460;10.892;2022-09-27T03:46:08;59.57;;;57.57;;
73084;SDS011;62974;49.460;10.892;2022-09-27T03:48:36;58.40;;;56.30;;
73084;SDS011;62974;49.460;10.892;2022-09-27T03:51:03;58.20;;;56.20;;
73084;SDS011;62974;49.460;10.892;2022-09-27T03:53:32;58.17;;;55.97;;
73084;SDS011;62974;49.460;10.892;2022-09-27T03:56:00;58.40;;;56.40;;
73084;SDS011;62974;49.460;10.892;2022-09-27T03:58:28;60.50;;;58.20;;
73084;SDS011;62974;49.460;10.892;2022-09-27T04:00:55;62.80;;;60.60;;
73084;SDS011;62974;49.460;10.892;2022-09-27T04:03:23;62.53;;;59.83;;
73084;SDS011;62974;49.460;10.892;2022-09-27T04:05:52;60.63;;;58.53;;
73084;SDS011;62974;49.460;10.892;2022-09-27T04:08:20;60.27;;;57.70;;
73084;SDS011;62974;49.460;10.892;2022-09-27T04:10:50;58.97;;;56.87;;
73084;SDS011;62974;49.460;10.892;2022-09-27T04:13:17;58.30;;;56.10;;
73084;SDS011;62974;49.460;10.892;2022-09-27T04:15:45;62.57;;;60.27;;
73084;SDS011;62974;49.460;10.892;2022-09-27T04:18:17;61.47;;;59.37;;
73084;SDS011;62974;49.460;10.892;2022-09-27T04:20:45;63.37;;;60.70;;
73084;SDS011;62974;49.460;10.892;2022-09-27T04:23:12;62.97;;;60.67;;
73084;SDS011;62974;49.460;10.892;2022-09-27T04:25:40;61.87;;;59.77;;
73084;SDS011;62974;49.460;10.892;2022-09-27T04:28:09;62.50;;;60.00;;
73084;SDS011;62974;49.460;10.892;2022-09-27T04:30:36;61.80;;;59.60;;
73084;SDS011;62974;49.460;10.892;2022-09-27T04:33:04;59.10;;;56.90;;
73084;SDS011;62974;49.460;10.892;2022-09-27T04:35:32;58.73;;;56.70;;
73084;SDS011;62974;49.460;10.892;2022-09-27T04:38:28;61.93;;;59.63;;
73084;SDS011;62974;49.460;10.892;2022-09-27T04:40:56;60.00;;;57.90;;
73084;SDS011;62974;49.460;10.892;2022-09-27T04:43:28;59.57;;;57.40;;
73084;SDS011;62974;49.460;10.892;2022-09-27T04:45:56;59.00;;;56.70;;
73084;SDS011;62974;49.460;10.892;2022-09-27T04:48:23;58.80;;;56.70;;
73084;SDS011;62974;49.460;10.892;2022-09-27T04:50:54;59.00;;;56.90;;
73084;SDS011;62974;49.460;10.892;2022-09-27T04:53:23;58.20;;;56.00;;
73084;SDS011;62974;49.460;10.892;2022-09-27T04:55:51;58.57;;;56.47;;
73084;SDS011;62974;49.460;10.892;2022-09-27T04:58:19;60.50;;;58.00;;
73084;SDS011;62974;49.460;10.892;2022-09-27T05:00:49;61.77;;;59.30;;
73084;SDS011;62974;49.460;10.892;2022-09-27T05:03:19;61.60;;;59.40;;
73084;SDS011;62974;49.460;10.892;2022-09-27T05:05:47;59.67;;;57.40;;
73084;SDS011;62974;49.460;10.892;2022-09-27T05:08:15;60.03;;;57.73;;
73084;SDS011;62974;49.460;10.892;2022-09-27T05:10:42;62.10;;;59.90;;
73084;SDS011;62974;49.460;10.892;2022-09-27T05:13:10;61.50;;;59.40;;
73084;SDS011;62974;49.460;10.892;2022-09-27T05:15:38;61.87;;;59.57;;
73084;SDS011;62974;49.460;10.892;2022-09-27T05:18:07;62.27;;;59.97;;
73084;SDS011;62974;49.460;10.892;2022-09-27T05:20:35;60.53;;;58.03;;
73084;SDS011;62974;49.460;10.892;2022-09-27T05:23:03;62.87;;;60.30;;
73084;SDS011;62974;49.460;10.892;2022-09-27T05:25:31;62.80;;;60.40;;
73084;SDS011;62974;49.460;10.892;2022-09-27T05:27:59;62.40;;;60.20;;
73084;SDS011;62974;49.460;10.892;2022-09-27T05:30:27;62.07;;;59.77;;
73084;SDS011;62974;49.460;10.892;2022-09-27T05:32:54;61.93;;;59.63;;
73084;SDS011;62974;49.460;10.892;2022-09-27T05:35:30;62.47;;;60.27;;
73084;SDS011;62974;49.460;10.892;2022-09-27T05:37:59;62.47;;;60.07;;
73084;SDS011;62974;49.460;10.892;2022-09-27T05:40:27;63.43;;;61.03;;
73084;SDS011;62974;49.460;10.892;2022-09-27T05:43:07;61.37;;;59.07;;
73084;SDS011;62974;49.460;10.892;2022-09-27T05:45:34;59.37;;;56.97;;
73084;SDS011;62974;49.460;10.892;2022-09-27T05:48:02;60.40;;;58.17;;
73084;SDS011;62974;49.460;10.892;2022-09-27T05:50:31;61.50;;;59.30;;
73084;SDS011;62974;49.460;10.892;2022-09-27T05:52:59;62.00;;;59.60;;
73084;SDS011;62974;49.460;10.892;2022-09-27T05:55:26;59.47;;;57.27;;
73084;SDS011;62974;49.460;10.892;2022-09-27T05:57:55;61.80;;;59.50;;
73084;SDS011;62974;49.460;10.892;2022-09-27T06:00:24;63.33;;;61.13;;
73084;SDS011;62974;49.460;10.892;2022-09-27T06:02:53;62.10;;;59.70;;
73084;SDS011;62974;49.460;10.892;2022-09-27T06:05:23;61.60;;;59.40;;
73084;SDS011;62974;49.460;10.892;2022-09-27T06:07:56;61.40;;;59.13;;
73084;SDS011;62974;49.460;10.892;2022-09-27T06:10:25;61.37;;;59.17;;
73084;SDS011;62974;49.460;10.892;2022-09-27T06:12:57;62.67;;;59.97;;
73084;SDS011;62974;49.460;10.892;2022-09-27T06:15:26;61.73;;;59.20;;
73084;SDS011;62974;49.460;10.892;2022-09-27T06:17:54;62.47;;;59.60;;
73084;SDS011;62974;49.460;10.892;2022-09-27T06:20:21;60.47;;;58.27;;
73084;SDS011;62974;49.460;10.892;2022-09-27T06:22:49;59.43;;;57.40;;
73084;SDS011;62974;49.460;10.892;2022-09-27T06:25:20;60.60;;;58.27;;
73084;SDS011;62974;49.460;10.892;2022-09-27T06:27:48;58.77;;;56.67;;
73084;SDS011;62974;49.460;10.892;2022-09-27T06:30:15;60.80;;;58.60;;
73084;SDS011;62974;49.460;10.892;2022-09-27T06:32:45;60.00;;;57.70;;
73084;SDS011;62974;49.460;10.892;2022-09-27T06:35:13;59.53;;;57.37;;
73084;SDS011;62974;49.460;10.892;2022-09-27T06:37:41;60.17;;;57.93;;
73084;SDS011;62974;49.460;10.892;2022-09-27T06:40:08;58.27;;;56.27;;
73084;SDS011;62974;49.460;10.892;2022-09-27T06:42:37;60.63;;;58.33;;
73084;SDS011;62974;49.460;10.892;2022-09-27T06:45:05;61.10;;;58.80;;
73084;SDS011;62974;49.460;10.892;2022-09-27T06:47:34;58.40;;;56.30;;
73084;SDS011;62974;49.460;10.892;2022-09-27T06:50:02;58.40;;;56.30;;
73084;SDS011;62974;49.460;10.892;2022-09-27T06:52:31;58.30;;;56.30;;
73084;SDS011;62974;49.460;10.892;2022-09-27T06:55:00;58.60;;;56.60;;
73084;SDS011;62974;49.460;10.892;2022-09-27T06:57:27;59.50;;;57.40;;
73084;SDS011;62974;49.460;10.892;2022-09-27T07:00:14;58.63;;;56.53;;
73084;SDS011;62974;49.460;10.892;2022-09-27T07:02:52;59.40;;;57.40;;
73084;SDS011;62974;49.460;10.892;2022-09-27T07:05:26;59.80;;;57.60;;
73084;SDS011;62974;49.460;10.892;2022-09-27T07:07:55;59.57;;;57.50;;
73084;SDS011;62974;49.460;10.892;2022-09-27T07:10:23;60.10;;;58.00;;
73084;SDS011;62974;49.460;10.892;2022-09-27T07:12:52;61.43;;;58.97;;
73084;SDS011;62974;49.460;10.892;2022-09-27T07:15:21;59.60;;;57.50;;
73084;SDS011;62974;49.460;10.892;2022-09-27T07:17:54;58.43;;;56.33;;
73084;SDS011;62974;49.460;10.892;2022-09-27T07:20:23;59.33;;;57.23;;
73084;SDS011;62974;49.460;10.892;2022-09-27T07:22:50;58.00;;;56.00;;
73084;SDS011;62974;49.460;10.892;2022-09-27T07:25:18;58.50;;;56.50;;
73084;SDS011;62974;49.460;10.892;2022-09-27T07:27:46;57.50;;;55.40;;
73084;SDS011;62974;49.460;10.892;2022-09-27T07:30:14;57.50;;;55.50;;
73084;SDS011;62974;49.460;10.892;2022-09-27T07:32:44;58.50;;;56.50;;
73084;SDS011;62974;49.460;10.892;2022-09-27T07:35:12;57.53;;;55.53;;
73084;SDS011;62974;49.460;10.892;2022-09-27T07:37:41;57.60;;;55.60;;
73084;SDS011;62974;49.460;10.892;2022-09-27T07:40:10;58.10;;;56.10;;
73084;SDS011;62974;49.460;10.892;2022-09-27T07:42:38;59.97;;;57.57;;
73084;SDS011;62974;49.460;10.892;2022-09-27T07:45:06;59.23;;;57.20;;
73084;SDS011;62974;49.460;10.892;2022-09-27T07:47:37;58.57;;;56.47;;
73084;SDS011;62974;49.460;10.892;2022-09-27T07:50:06;60.50;;;58.30;;
73084;SDS011;62974;49.460;10.892;2022-09-27T07:52:38;59.70;;;57.60;;
73084;SDS011;62974;49.460;10.892;2022-09-27T07:55:06;58.23;;;56.20;;
73084;SDS011;62974;49.460;10.892;2022-09-27T07:57:35;59.60;;;56.90;;
73084;SDS011;62974;49.460;10.892;2022-09-27T08:00:03;60.60;;;58.23;;
73084;SDS011;62974;49.460;10.892;2022-09-27T08:02:33;57.43;;;55.50;;
73084;SDS011;62974;49.460;10.892;2022-09-27T08:05:00;58.73;;;56.63;;
73084;SDS011;62974;49.460;10.892;2022-09-27T08:07:30;60.30;;;58.00;;
73084;SDS011;62974;49.460;10.892;2022-09-27T08:09:58;60.10;;;57.93;;
73084;SDS011;62974;49.460;10.892;2022-09-27T08:12:26;58.03;;;56.03;;
73084;SDS011;62974;49.460;10.892;2022-09-27T08:14:54;59.40;;;57.30;;
73084;SDS011;62974;49.460;10.892;2022-09-27T08:17:23;59.30;;;57.20;;
73084;SDS011;62974;49.460;10.892;2022-09-27T08:19:51;58.20;;;56.20;;
73084;SDS011;62974;49.460;10.892;2022-09-27T08:22:18;57.70;;;55.70;;
73084;SDS011;62974;49.460;10.892;2022-09-27T08:24:48;60.13;;;58.03;;
73084;SDS011;62974;49.460;10.892;2022-09-27T08:27:16;60.83;;;58.73;;
73084;SDS011;62974;49.460;10.892;2022-09-27T08:29:44;60.40;;;58.20;;
73084;SDS011;62974;49.460;10.892;2022-09-27T08:32:13;60.57;;;58.47;;
73084;SDS011;62974;49.460;10.892;2022-09-27T08:34:48;60.63;;;58.53;;
73084;SDS011;62974;49.460;10.892;2022-09-27T08:37:15;60.83;;;58.53;;
73084;SDS011;62974;49.460;10.892;2022-09-27T08:39:43;58.07;;;56.07;;
73084;SDS011;62974;49.460;10.892;2022-09-27T08:42:16;60.27;;;58.17;;
73084;SDS011;62974;49.460;10.892;2022-09-27T08:44:56;58.93;;;56.83;;
73084;SDS011;62974;49.460;10.892;2022-09-27T08:47:30;59.03;;;56.93;;
73084;SDS011;62974;49.460;10.892;2022-09-27T08:50:05;59.67;;;57.67;;
73084;SDS011;62974;49.460;10.892;2022-09-27T08:52:45;58.57;;;56.57;;
73084;SDS011;62974;49.460;10.892;2022-09-27T08:55:20;59.17;;;57.07;;
73084;SDS011;62974;49.460;10.892;2022-09-27T08:57:53;58.70;;;56.70;;
73084;SDS011;62974;49.460;10.892;2022-09-27T09:00:23;62.10;;;60.00;;
73084;SDS011;62974;49.460;10.892;2022-09-27T09:02:55;57.60;;;55.70;;
73084;SDS011;62974;49.460;10.892;2022-09-27T09:05:26;58.10;;;56.10;;
73084;SDS011;62974;49.460;10.892;2022-09-27T09:07:59;57.90;;;55.90;;
73084;SDS011;62974;49.460;10.892;2022-09-27T09:10:40;57.50;;;55.60;;
73084;SDS011;62974;49.460;10.892;2022-09-27T09:13:51;57.77;;;55.77;;
73084;SDS011;62974;49.460;10.892;2022-09-27T09:16:40;57.87;;;55.87;;
73084;SDS011;62974;49.460;10.892;2022-09-27T09:19:29;58.87;;;56.80;;
73084;SDS011;62974;49.460;10.892;2022-09-27T09:22:14;60.63;;;58.43;;
73084;SDS011;62974;49.460;10.892;2022-09-27T09:25:00;58.10;;;56.10;;
73084;SDS011;62974;49.460;10.892;2022-09-27T09:27:42;58.13;;;56.13;;
73084;SDS011;62974;49.460;10.892;2022-09-27T09:30:19;58.37;;;56.30;;
73084;SDS011;62974;49.460;10.892;2022-09-27T09:32:56;57.57;;;55.57;;
73084;SDS011;62974;49.460;10.892;2022-09-27T09:35:35;58.10;;;56.10;;
73084;SDS011;62974;49.460;10.892;2022-09-27T09:38:09;57.80;;;55.80;;
73084;SDS011;62974;49.460;10.892;2022-09-27T09:40:42;58.70;;;56.70;;
73084;SDS011;62974;49.460;10.892;2022-09-27T09:43:15;57.73;;;55.63;;
73084;SDS011;62974;49.460;10.892;2022-09-27T09:45:48;57.80;;;55.80;;
73084;SDS011;62974;49.460;10.892;2022-09-27T09:48:23;58.30;;;56.20;;
73084;SDS011;62974;49.460;10.892;2022-09-27T09:50:57;58.37;;;56.20;;
73084;SDS011;62974;49.460;10.892;2022-09-27T09:53:33;58.53;;;56.43;;
73084;SDS011;62974;49.460;10.892;2022-09-27T09:56:08;57.60;;;55.60;;
73084;SDS011;62974;49.460;10.892;2022-09-27T09:58:41;58.80;;;56.63;;
73084;SDS011;62974;49.460;10.892;2022-09-27T10:01:17;58.63;;;56.53;;
73084;SDS011;62974;49.460;10.892;2022-09-27T10:03:47;58.00;;;56.00;;
73084;SDS011;62974;49.460;10.892;2022-09-27T10:06:15;57.40;;;55.43;;
73084;SDS011;62974;49.460;10.892;2022-09-27T10:08:44;58.60;;;56.40;;
73084;SDS011;62974;49.460;10.892;2022-09-27T10:11:16;58.13;;;55.93;;
73084;SDS011;62974;49.460;10.892;2022-09-27T10:13:47;58.20;;;56.20;;
73084;SDS011;62974;49.460;10.892;2022-09-27T10:16:17;59.13;;;57.03;;
73084;SDS011;62974;49.460;10.892;2022-09-27T10:18:46;58.40;;;56.40;;
73084;SDS011;62974;49.460;10.892;2022-09-27T10:21:16;58.07;;;55.90;;
73084;SDS011;62974;49.460;10.892;2022-09-27T10:24:00;58.03;;;56.00;;
73084;SDS011;62974;49.460;10.892;2022-09-27T10:26:30;58.20;;;56.20;;
73084;SDS011;62974;49.460;10.892;2022-09-27T10:29:12;60.43;;;58.23;;
73084;SDS011;62974;49.460;10.892;2022-09-27T10:31:43;59.23;;;57.13;;
73084;SDS011;62974;49.460;10.892;2022-09-27T10:34:16;58.07;;;56.07;;
73084;SDS011;62974;49.460;10.892;2022-09-27T10:36:48;57.53;;;55.63;;
73084;SDS011;62974;49.460;10.892;2022-09-27T10:39:29;57.60;;;55.50;;
73084;SDS011;62974;49.460;10.892;2022-09-27T10:41:56;57.60;;;55.40;;
73084;SDS011;62974;49.460;10.892;2022-09-27T10:44:25;58.70;;;56.60;;
73084;SDS011;62974;49.460;10.892;2022-09-27T10:46:56;57.70;;;55.70;;
73084;SDS011;62974;49.460;10.892;2022-09-27T10:49:28;58.90;;;56.80;;
73084;SDS011;62974;49.460;10.892;2022-09-27T10:51:59;58.40;;;56.40;;
73084;SDS011;62974;49.460;10.892;2022-09-27T10:54:29;60.17;;;57.67;;
73084;SDS011;62974;49.460;10.892;2022-09-27T10:57:00;59.20;;;56.90;;
73084;SDS011;62974;49.460;10.892;2022-09-27T10:59:31;57.90;;;55.90;;
73084;SDS011;62974;49.460;10.892;2022-09-27T11:02:03;58.17;;;56.17;;
73084;SDS011;62974;49.460;10.892;2022-09-27T11:04:33;57.83;;;55.70;;
73084;SDS011;62974;49.460;10.892;2022-09-27T11:07:12;59.13;;;56.60;;
73084;SDS011;62974;49.460;10.892;2022-09-27T11:09:49;58.03;;;55.93;;
73084;SDS011;62974;49.460;10.892;2022-09-27T11:12:17;57.73;;;55.63;;
73084;SDS011;62974;49.460;10.892;2022-09-27T11:14:50;57.70;;;55.70;;
73084;SDS011;62974;49.460;10.892;2022-09-27T11:17:25;58.80;;;56.80;;
73084;SDS011;62974;49.460;10.892;2022-09-27T11:20:05;57.97;;;55.90;;
73084;SDS011;62974;49.460;10.892;2022-09-27T11:22:45;60.10;;;57.90;;
73084;SDS011;62974;49.460;10.892;2022-09-27T11:25:32;59.23;;;57.23;;
73084;SDS011;62974;49.460;10.892;2022-09-27T11:28:07;57.77;;;55.77;;
73084;SDS011;62974;49.460;10.892;2022-09-27T11:30:46;58.97;;;56.90;;
73084;SDS011;62974;49.460;10.892;2022-09-27T11:33:26;58.37;;;56.30;;
73084;SDS011;62974;49.460;10.892;2022-09-27T11:36:04;60.37;;;58.17;;
73084;SDS011;62974;49.460;10.892;2022-09-27T11:38:42;57.90;;;55.60;;
73084;SDS011;62974;49.460;10.892;2022-09-27T11:41:30;57.87;;;55.87;;
73084;SDS011;62974;49.460;10.892;2022-09-27T11:44:14;58.07;;;56.07;;
73084;SDS011;62974;49.460;10.892;2022-09-27T11:46:52;58.40;;;56.30;;
73084;SDS011;62974;49.460;10.892;2022-09-27T11:49:35;57.93;;;55.93;;
73084;SDS011;62974;49.460;10.892;2022-09-27T11:52:23;57.70;;;55.60;;
73084;SDS011;62974;49.460;10.892;2022-09-27T11:55:08;57.60;;;55.60;;
73084;SDS011;62974;49.460;10.892;2022-09-27T11:57:46;57.83;;;55.67;;
73084;SDS011;62974;49.460;10.892;2022-09-27T12:00:19;57.80;;;55.80;;
73084;SDS011;62974;49.460;10.892;2022-09-27T12:02:55;58.53;;;56.20;;
73084;SDS011;62974;49.460;10.892;2022-09-27T12:05:54;58.00;;;56.00;;
73084;SDS011;62974;49.460;10.892;2022-09-27T12:08:36;57.83;;;55.83;;
73084;SDS011;62974;49.460;10.892;2022-09-27T12:11:15;57.60;;;55.60;;
73084;SDS011;62974;49.460;10.892;2022-09-27T12:13:47;57.53;;;55.23;;
73084;SDS011;62974;49.460;10.892;2022-09-27T12:16:19;57.50;;;55.60;;
73084;SDS011;62974;49.460;10.892;2022-09-27T12:18:49;57.53;;;55.53;;
73084;SDS011;62974;49.460;10.892;2022-09-27T12:21:20;57.40;;;55.40;;
73084;SDS011;62974;49.460;10.892;2022-09-27T12:23:49;57.60;;;55.50;;
73084;SDS011;62974;49.460;10.892;2022-09-27T12:26:22;57.80;;;55.70;;
73084;SDS011;62974;49.460;10.892;2022-09-27T12:28:52;57.70;;;55.57;;
73084;SDS011;62974;49.460;10.892;2022-09-27T12:31:25;57.77;;;55.77;;
73084;SDS011;62974;49.460;10.892;2022-09-27T12:33:58;57.53;;;55.53;;
73084;SDS011;62974;49.460;10.892;2022-09-27T12:36:36;57.93;;;55.73;;
73084;SDS011;62974;49.460;10.892;2022-09-27T12:39:10;58.20;;;56.20;;
73084;SDS011;62974;49.460;10.892;2022-09-27T12:41:46;58.50;;;56.50;;
73084;SDS011;62974;49.460;10.892;2022-09-27T12:44:18;57.90;;;55.90;;
73084;SDS011;62974;49.460;10.892;2022-09-27T12:46:49;59.43;;;57.20;;
73084;SDS011;62974;49.460;10.892;2022-09-27T12:49:27;58.53;;;56.30;;
73084;SDS011;62974;49.460;10.892;2022-09-27T12:52:02;58.13;;;56.13;;
73084;SDS011;62974;49.460;10.892;2022-09-27T12:57:36;58.63;;;56.50;;
73084;SDS011;62974;49.460;10.892;2022-09-27T13:00:10;59.37;;;57.17;;
73084;SDS011;62974;49.460;10.892;2022-09-27T13:02:50;58.30;;;56.10;;
73084;SDS011;62974;49.460;10.892;2022-09-27T13:05:51;58.97;;;56.67;;
73084;SDS011;62974;49.460;10.892;2022-09-27T13:08:39;59.00;;;56.70;;
73084;SDS011;62974;49.460;10.892;2022-09-27T13:11:20;58.47;;;56.33;;
73084;SDS011;62974;49.460;10.892;2022-09-27T13:13:53;59.23;;;56.73;;
73084;SDS011;62974;49.460;10.892;2022-09-27T13:16:23;59.83;;;57.20;;
73084;SDS011;62974;49.460;10.892;2022-09-27T13:18:53;58.57;;;56.37;;
73084;SDS011;62974;49.460;10.892;2022-09-27T13:24:30;59.27;;;57.07;;
73084;SDS011;62974;49.460;10.892;2022-09-27T13:33:30;58.60;;;56.50;;
73084;SDS011;62974;49.460;10.892;2022-09-27T13:36:04;58.50;;;56.20;;
73084;SDS011;62974;49.460;10.892;2022-09-27T13:38:51;59.60;;;57.10;;
73084;SDS011;62974;49.460;10.892;2022-09-27T13:41:30;58.70;;;56.40;;
73084;SDS011;62974;49.460;10.892;2022-09-27T13:44:10;61.27;;;58.67;;
73084;SDS011;62974;49.460;10.892;2022-09-27T13:46:48;59.47;;;57.07;;
73084;SDS011;62974;49.460;10.892;2022-09-27T13:49:22;59.97;;;57.57;;
73084;SDS011;62974;49.460;10.892;2022-09-27T13:51:55;61.43;;;58.83;;
73084;SDS011;62974;49.460;10.892;2022-09-27T13:54:39;57.80;;;55.70;;
73084;SDS011;62974;49.460;10.892;2022-09-27T14:00:11;58.50;;;56.50;;
73084;SDS011;62974;49.460;10.892;2022-09-27T14:02:45;58.70;;;56.70;;
73084;SDS011;62974;49.460;10.892;2022-09-27T14:05:23;58.67;;;56.57;;
73084;SDS011;62974;49.460;10.892;2022-09-27T14:07:53;57.73;;;55.73;;
73084;SDS011;62974;49.460;10.892;2022-09-27T14:10:24;58.07;;;55.73;;
73084;SDS011;62974;49.460;10.892;2022-09-27T14:12:56;60.27;;;58.00;;
73084;SDS011;62974;49.460;10.892;2022-09-27T14:15:27;58.10;;;56.00;;
73084;SDS011;62974;49.460;10.892;2022-09-27T14:17:57;57.87;;;55.80;;
73084;SDS011;62974;49.460;10.892;2022-09-27T14:20:29;59.07;;;56.97;;
73084;SDS011;62974;49.460;10.892;2022-09-27T14:22:58;57.93;;;55.83;;
73084;SDS011;62974;49.460;10.892;2022-09-27T14:25:27;57.73;;;55.67;;
73084;SDS011;62974;49.460;10.892;2022-09-27T14:27:56;57.13;;;55.13;;
73084;SDS011;62974;49.460;10.892;2022-09-27T14:30:26;57.47;;;55.37;;
73084;SDS011;62974;49.460;10.892;2022-09-27T14:32:55;57.87;;;55.83;;
73084;SDS011;62974;49.460;10.892;2022-09-27T14:35:25;57.37;;;55.30;;
73084;SDS011;62974;49.460;10.892;2022-09-27T14:38:13;59.23;;;57.03;;
73084;SDS011;62974;49.460;10.892;2022-09-27T14:41:04;59.30;;;57.20;;
73084;SDS011;62974;49.460;10.892;2022-09-27T14:43:35;58.73;;;56.73;;
73084;SDS011;62974;49.460;10.892;2022-09-27T14:46:20;58.27;;;56.27;;
73084;SDS011;62974;49.460;10.892;2022-09-27T14:48:52;57.73;;;55.73;;
73084;SDS011;62974;49.460;10.892;2022-09-27T14:51:23;61.60;;;59.20;;
73084;SDS011;62974;49.460;10.892;2022-09-27T14:53:54;60.07;;;57.67;;
73084;SDS011;62974;49.460;10.892;2022-09-27T14:56:26;59.67;;;57.57;;
73084;SDS011;62974;49.460;10.892;2022-09-27T14:59:00;60.40;;;58.27;;
73084;SDS011;62974;49.460;10.892;2022-09-27T15:01:31;57.27;;;55.27;;